Airfield :
LOGIN :

Register | Disclaimer

   EN    FR    IT 

 










Legend :    VFR   Marginal VFR   IFR   Intensive IFR   Very Intensive IFR
Visi :
Ceiling :
>= 8 km
>= 3000ft
5 to 8 km
1000 to 3000 ft
1500m to 5 km
500 to 1000 ft
800 to 1500m
200 to 500 ft
< 800m
< 200 ft
Symbols :   Thunderstorms  Fog  Heavy snow  Heavy precipitations  Wind > 20 kt
SIGMETs :     Misc.  Thunderstorms  Icing  Turbulence  Mountain Waves  Volcanic Ashes







- Airport Elevation : 375 ft
- IATA code : MST


EHBK - Maastricht Aachen

CURRENT METAR :
  • 222155Z AUTO 24006KT 210V270 9999 NSC 18/12 Q1012

EXPIRED METARs :
  • 222125Z AUTO 20005KT 9999 NSC 19/11 Q1011
  • 222055Z AUTO 21008KT 9999 NSC 18/12 Q1011 NOSIG
  • 222025Z AUTO 22007KT 9999 NCD 19/11 Q1011 NOSIG
  • 221955Z AUTO 22007KT 9999 NSC 20/11 Q1011 NOSIG
  • 221925Z AUTO 23009KT 200V260 9999 NCD 21/11 Q1011 NOSIG

TAF TAF EHBK
Valid from the 22 at 18:00 until the 24 at 00:00 UTC


221720Z 2218/2324 24010KT CAVOK
PROB40
TEMPO 2301/2306 7000 -RA BKN012
BECMG 2307/2310 27011G21KT
BECMG 2317/2319 32005KT
BECMG 2321/2324 23010KT
No reported NOTAMs for that airfield.



MET'MAP, your aeronautical weather chart ! - Copyright ORBIFLY December 2007 - Disclaimer

ORBIFLY MET'MAP TEAM :

Programming & Development : Alexandra Zaïnal
Concept & Development : Baudouin d'Aumeries
Co-Development & Prog : Marc-Olivier Méhu
Technical & hardware support : Manuel Goepfert

Contact : metmap@orbifly.com




SOURCES & CREDITS :

   NOAA